Time;durP1;ratioP1;P1;durP2;ratioP2;P2;SDS_P1;SDS_P2;PMS_P1;PMS_P2;Temp;Humidity;BMP_temperature;BMP_pressure;BME280_temperature;BME280_humidity;BME280_pressure;Samples;Min_cycle;Max_cycle;Signal;HPM_P1;HPM_P2
2021/12/07 00:01:42;;;;;;;3.28;2.38;;;3.80;99.90;;;;;;5078215;28;20638;-45
2021/12/07 00:04:08;;;;;;;2.60;2.00;;;3.80;99.90;;;;;;5078267;28;20637;-47
2021/12/07 00:06:35;;;;;;;2.47;2.28;;;3.80;99.90;;;;;;5078163;28;20205;-47
2021/12/07 00:09:01;;;;;;;2.63;1.90;;;3.80;99.90;;;;;;5078168;28;20255;-47
2021/12/07 00:11:29;;;;;;;1.92;1.52;;;3.80;99.90;;;;;;5078513;28;20622;-48
2021/12/07 00:13:57;;;;;;;1.90;1.73;;;3.70;99.90;;;;;;5078054;28;20162;-47
2021/12/07 00:16:24;;;;;;;1.95;1.70;;;3.70;99.90;;;;;;5078723;28;20295;-47
2021/12/07 00:18:49;;;;;;;1.70;1.60;;;3.70;99.90;;;;;;5078113;28;20243;-47
2021/12/07 00:21:17;;;;;;;3.30;1.45;;;3.70;99.90;;;;;;5078128;28;20561;-47
2021/12/07 00:23:46;;;;;;;1.85;1.70;;;3.60;99.90;;;;;;5078244;28;20197;-48
2021/12/07 00:26:12;;;;;;;2.17;1.98;;;3.60;99.90;;;;;;5078015;28;20209;-47
2021/12/07 00:28:39;;;;;;;1.60;1.50;;;3.50;99.90;;;;;;5077988;28;20171;-47
2021/12/07 00:31:13;;;;;;;2.42;1.92;;;3.50;99.90;;;;;;5077678;28;20166;-47
2021/12/07 00:33:55;;;;;;;2.50;1.98;;;3.50;99.90;;;;;;5077975;28;20275;-46
2021/12/07 00:36:21;;;;;;;3.58;2.08;;;3.60;99.90;;;;;;5078235;28;20170;-47
2021/12/07 00:38:47;;;;;;;3.92;2.40;;;3.50;99.90;;;;;;5077770;28;20170;-47
2021/12/07 00:41:12;;;;;;;2.25;1.90;;;3.60;99.90;;;;;;5077709;28;20170;-46
2021/12/07 00:43:38;;;;;;;2.25;2.05;;;3.60;99.90;;;;;;5074178;28;20256;-48
2021/12/07 00:46:04;;;;;;;2.60;2.40;;;3.60;99.90;;;;;;5074645;28;20205;-46
2021/12/07 00:48:30;;;;;;;2.63;2.28;;;3.60;99.90;;;;;;5074567;28;20166;-46
2021/12/07 00:50:57;;;;;;;3.85;2.92;;;3.60;99.90;;;;;;5075103;28;20213;-47
2021/12/07 00:53:24;;;;;;;3.67;3.15;;;3.60;99.90;;;;;;5075158;28;20307;-45
2021/12/07 00:55:53;;;;;;;4.22;3.30;;;3.70;99.90;;;;;;5074691;28;20540;-46
2021/12/07 00:58:23;;;;;;;4.22;3.17;;;3.70;99.90;;;;;;5074493;28;20177;-47
2021/12/07 01:00:56;;;;;;;5.55;3.95;;;3.70;99.90;;;;;;5074730;28;20178;-48
2021/12/07 01:03:22;;;;;;;5.90;3.67;;;3.80;99.90;;;;;;5074404;28;20174;-46
2021/12/07 01:05:52;;;;;;;5.68;4.13;;;3.80;99.90;;;;;;5074315;28;20202;-47
2021/12/07 01:08:50;;;;;;;4.57;4.10;;;3.80;99.90;;;;;;5074208;28;20162;-48
2021/12/07 01:24:45;;;;;;;7.22;5.38;;;4.10;99.90;;;;;;5074160;28;20270;-46
2021/12/07 01:27:14;;;;;;;12.10;6.75;;;4.10;99.90;;;;;;5073994;28;20590;-48
2021/12/07 01:29:42;;;;;;;6.72;5.90;;;4.20;99.90;;;;;;5072651;28;20566;-48
2021/12/07 01:40:19;;;;;;;10.52;6.43;;;4.30;99.90;;;;;;5074047;28;20170;-47
2021/12/07 01:43:28;;;;;;;9.25;5.47;;;4.30;99.90;;;;;;5073534;28;20660;-45
2021/12/07 01:51:35;;;;;;;10.77;5.90;;;4.40;99.90;;;;;;5073438;28;20652;-47
2021/12/07 01:59:36;;;;;;;13.20;4.80;;;4.50;99.90;;;;;;5072339;28;20177;-47
2021/12/07 02:02:07;;;;;;;9.63;5.40;;;4.40;99.90;;;;;;5073297;28;20304;-48
2021/12/07 02:04:33;;;;;;;9.90;4.47;;;4.50;99.90;;;;;;5073139;28;20181;-46
2021/12/07 02:06:59;;;;;;;6.85;3.90;;;4.50;99.90;;;;;;5073198;28;20166;-47
2021/12/07 02:09:24;;;;;;;8.30;3.88;;;4.50;99.90;;;;;;5073393;28;20217;-46
2021/12/07 02:11:57;;;;;;;5.70;4.28;;;4.50;99.90;;;;;;5073095;28;20576;-45
2021/12/07 02:14:23;;;;;;;7.40;3.80;;;4.50;99.90;;;;;;5072567;28;20162;-46
2021/12/07 02:16:52;;;;;;;7.28;3.50;;;4.50;99.90;;;;;;5073172;28;20184;-48
2021/12/07 02:19:18;;;;;;;7.85;4.65;;;4.50;99.90;;;;;;5072899;28;20699;-46
2021/12/07 02:21:44;;;;;;;8.05;3.53;;;4.50;99.90;;;;;;5072890;28;20205;-45
2021/12/07 02:24:10;;;;;;;8.13;4.28;;;4.50;99.90;;;;;;5072967;28;20208;-47
2021/12/07 02:26:36;;;;;;;9.93;3.88;;;4.50;99.90;;;;;;5072782;28;20209;-46
2021/12/07 02:29:03;;;;;;;8.45;4.70;;;4.60;99.90;;;;;;5072654;28;20177;-47
2021/12/07 02:31:29;;;;;;;13.40;6.10;;;4.60;99.90;;;;;;5072706;28;20200;-47
2021/12/07 02:33:55;;;;;;;8.77;5.32;;;4.60;99.90;;;;;;5072976;28;20169;-47
2021/12/07 02:36:21;;;;;;;14.88;4.88;;;4.70;99.90;;;;;;5072828;28;20170;-49
2021/12/07 02:38:47;;;;;;;14.02;5.95;;;4.70;99.90;;;;;;5072647;28;21047;-47
2021/12/07 02:41:13;;;;;;;12.48;5.03;;;4.70;99.90;;;;;;5072479;28;20264;-46
2021/12/07 02:43:39;;;;;;;11.45;4.53;;;4.80;99.90;;;;;;5072534;28;20220;-46
2021/12/07 02:46:05;;;;;;;12.43;4.03;;;4.80;99.90;;;;;;5072347;28;20301;-45
2021/12/07 02:48:32;;;;;;;8.93;4.30;;;4.80;99.90;;;;;;5072354;28;20202;-47
2021/12/07 02:50:58;;;;;;;12.60;3.50;;;4.80;99.90;;;;;;5072655;28;20204;-45
2021/12/07 02:53:26;;;;;;;14.90;5.20;;;4.80;99.90;;;;;;5072914;28;20591;-48
2021/12/07 02:55:54;;;;;;;11.75;4.25;;;4.90;99.90;;;;;;5072573;28;20253;-48
2021/12/07 02:58:20;;;;;;;25.20;5.55;;;4.80;99.90;;;;;;5072274;28;20174;-47
2021/12/07 03:00:56;;;;;;;12.27;5.18;;;4.80;99.90;;;;;;5072178;28;20162;-48
2021/12/07 03:03:22;;;;;;;11.48;4.07;;;4.80;99.90;;;;;;5072198;28;20535;-48
2021/12/07 03:06:02;;;;;;;14.45;4.55;;;4.80;99.90;;;;;;5071564;28;20205;-47
2021/12/07 03:27:22;;;;;;;13.68;4.25;;;4.80;99.90;;;;;;5071973;28;20213;-47
2021/12/07 03:29:48;;;;;;;13.13;3.75;;;4.80;99.90;;;;;;5071964;28;20166;-47
2021/12/07 03:32:14;;;;;;;11.07;3.22;;;4.80;99.90;;;;;;5071864;28;20216;-47
2021/12/07 03:34:39;;;;;;;10.50;4.05;;;4.80;99.90;;;;;;5071786;28;20166;-48
2021/12/07 03:37:05;;;;;;;18.38;4.20;;;4.80;99.90;;;;;;5071845;28;20540;-47
2021/12/07 03:39:30;;;;;;;17.73;3.85;;;4.70;99.90;;;;;;5071806;28;20166;-49
2021/12/07 03:41:56;;;;;;;15.80;4.00;;;4.70;99.90;;;;;;5072235;28;20513;-48
2021/12/07 03:44:22;;;;;;;10.10;4.47;;;4.70;99.90;;;;;;5071681;28;20615;-47
2021/12/07 03:46:47;;;;;;;15.55;4.07;;;4.70;99.90;;;;;;5071796;28;20776;-48
2021/12/07 03:49:13;;;;;;;16.23;4.30;;;4.80;99.90;;;;;;5071729;28;20243;-47
2021/12/07 03:51:39;;;;;;;12.43;4.82;;;4.70;99.90;;;;;;5071714;28;20170;-49
2021/12/07 03:54:06;;;;;;;11.43;4.38;;;4.70;99.90;;;;;;5071694;28;20625;-46
2021/12/07 03:56:32;;;;;;;13.27;4.57;;;4.70;99.90;;;;;;5071916;28;20174;-48
2021/12/07 03:58:58;;;;;;;10.52;3.83;;;4.70;99.90;;;;;;5071529;28;20176;-46
2021/12/07 04:01:24;;;;;;;9.93;4.00;;;4.70;99.90;;;;;;5072007;28;20166;-47
2021/12/07 04:03:52;;;;;;;14.38;4.10;;;4.70;99.90;;;;;;5071805;28;20178;-46
2021/12/07 04:06:18;;;;;;;20.73;5.60;;;4.70;99.90;;;;;;5071508;28;20202;-47
2021/12/07 04:08:45;;;;;;;9.85;4.25;;;4.60;99.90;;;;;;5071464;28;20213;-46
2021/12/07 04:11:12;;;;;;;14.95;5.13;;;4.60;99.90;;;;;;5071737;28;20180;-48
2021/12/07 04:13:37;;;;;;;11.93;4.10;;;4.60;99.90;;;;;;5071511;28;20219;-47
2021/12/07 04:16:05;;;;;;;17.60;3.70;;;4.60;99.90;;;;;;5071435;28;20166;-46
2021/12/07 04:18:30;;;;;;;17.00;4.80;;;4.60;99.90;;;;;;5074566;28;20158;-47
2021/12/07 04:20:57;;;;;;;15.43;4.93;;;4.60;99.90;;;;;;5075512;28;20180;-47
2021/12/07 04:23:23;;;;;;;13.15;4.20;;;4.70;99.90;;;;;;5075396;28;20162;-47
2021/12/07 04:25:49;;;;;;;15.95;5.03;;;4.60;99.90;;;;;;5075024;28;20233;-47
2021/12/07 04:28:14;;;;;;;8.75;4.35;;;4.60;99.90;;;;;;5075123;28;20177;-48
2021/12/07 04:30:42;;;;;;;11.02;3.78;;;4.60;99.90;;;;;;5075046;28;20198;-47
2021/12/07 04:33:09;;;;;;;11.18;3.47;;;4.60;99.90;;;;;;5075226;28;20211;-48
2021/12/07 04:35:37;;;;;;;14.82;4.38;;;4.50;99.90;;;;;;5075182;28;20177;-48
2021/12/07 04:38:03;;;;;;;11.13;3.70;;;4.50;99.90;;;;;;5074917;28;20170;-48
2021/12/07 04:40:31;;;;;;;14.57;4.07;;;4.50;99.90;;;;;;5074814;28;20319;-45
2021/12/07 04:42:58;;;;;;;11.68;3.03;;;4.50;99.90;;;;;;5075059;28;20177;-47
2021/12/07 04:57:36;;;;;;;9.65;3.22;;;4.40;99.90;;;;;;5074888;28;20166;-47
2021/12/07 04:58:50;;;;;;;12.60;5.07;;;4.50;99.90;;;;;;5074691;28;20181;-48
2021/12/07 05:01:16;;;;;;;14.02;4.07;;;4.40;99.90;;;;;;5074713;28;20166;-46
2021/12/07 05:03:43;;;;;;;12.18;4.18;;;4.40;99.90;;;;;;5074392;28;20173;-47
2021/12/07 05:06:10;;;;;;;12.25;5.15;;;4.50;99.90;;;;;;5074294;28;20259;-45
2021/12/07 05:08:53;;;;;;;15.85;4.65;;;4.50;99.90;;;;;;5074139;28;20165;-48
2021/12/07 05:13:57;;;;;;;15.07;5.70;;;4.50;99.90;;;;;;5074522;28;20171;-47
2021/12/07 05:19:04;;;;;;;16.60;5.30;;;4.50;99.90;;;;;;5074130;28;20158;-45
2021/12/07 05:24:19;;;;;;;15.77;4.57;;;4.50;99.90;;;;;;5074364;28;20725;-46
2021/12/07 05:40:19;;;;;;;13.85;4.32;;;4.30;99.90;;;;;;5073800;28;20564;-49
2021/12/07 05:42:45;;;;;;;9.80;3.38;;;4.30;99.90;;;;;;5073877;28;20173;-47
2021/12/07 05:45:15;;;;;;;8.43;3.38;;;4.30;99.90;;;;;;5073574;28;20205;-47
2021/12/07 05:47:42;;;;;;;15.95;5.68;;;4.30;99.90;;;;;;5072677;28;20575;-48
2021/12/07 05:50:09;;;;;;;9.23;4.22;;;4.30;99.90;;;;;;5073510;28;20162;-48
2021/12/07 05:52:35;;;;;;;7.28;4.35;;;4.30;99.90;;;;;;5073439;28;20200;-48
2021/12/07 05:55:01;;;;;;;12.68;4.53;;;4.30;99.90;;;;;;5073406;28;20196;-47
2021/12/07 05:57:27;;;;;;;13.57;4.78;;;4.30;99.90;;;;;;5073936;28;20629;-47
2021/12/07 05:59:52;;;;;;;15.60;4.55;;;3.30;99.90;;;;;;5073637;28;20170;-47
2021/12/07 06:02:18;;;;;;;11.13;4.18;;;4.30;99.90;;;;;;5073195;28;20166;-48
2021/12/07 06:04:43;;;;;;;11.55;3.35;;;4.30;99.90;;;;;;5073043;28;20299;-48
2021/12/07 06:07:10;;;;;;;13.27;3.65;;;4.40;99.90;;;;;;5073130;28;20181;-48
2021/12/07 06:09:36;;;;;;;15.38;3.83;;;4.30;99.90;;;;;;5072987;28;20667;-48
2021/12/07 06:12:02;;;;;;;13.63;3.63;;;4.30;99.90;;;;;;5073087;28;20166;-49
2021/12/07 06:14:35;;;;;;;14.52;4.38;;;4.20;99.90;;;;;;5072932;28;20166;-45
2021/12/07 06:17:00;;;;;;;7.85;3.47;;;4.20;99.90;;;;;;5073202;28;20177;-48
2021/12/07 06:19:27;;;;;;;15.27;4.45;;;4.20;99.90;;;;;;5073282;28;20164;-48
2021/12/07 06:21:53;;;;;;;11.88;3.97;;;4.20;99.90;;;;;;5073129;28;20534;-48
2021/12/07 06:24:19;;;;;;;8.23;3.65;;;4.10;99.90;;;;;;5072822;28;20166;-49
2021/12/07 06:26:44;;;;;;;11.32;4.43;;;4.20;99.90;;;;;;5072596;28;20247;-50
2021/12/07 06:29:11;;;;;;;13.45;3.70;;;4.20;99.90;;;;;;5072685;28;20212;-47
2021/12/07 06:31:37;;;;;;;10.68;4.20;;;4.20;99.90;;;;;;5072682;28;20162;-48
2021/12/07 06:34:03;;;;;;;8.75;4.10;;;4.20;99.90;;;;;;5072603;28;20249;-48
2021/12/07 06:36:28;;;;;;;14.25;4.28;;;4.20;99.90;;;;;;5072587;28;20166;-48
2021/12/07 06:38:55;;;;;;;13.27;4.80;;;4.30;99.90;;;;;;5072859;28;20223;-48
2021/12/07 06:41:20;;;;;;;11.38;4.55;;;4.30;99.90;;;;;;5071605;28;20189;-48
2021/12/07 06:43:46;;;;;;;19.00;5.03;;;4.20;99.90;;;;;;5072434;28;20192;-48
2021/12/07 06:46:12;;;;;;;9.10;4.45;;;4.20;99.90;;;;;;5072404;28;20688;-48
2021/12/07 06:48:38;;;;;;;11.77;3.85;;;4.20;99.90;;;;;;5072494;28;20173;-47
2021/12/07 06:51:04;;;;;;;10.50;4.22;;;4.20;99.90;;;;;;5072447;28;20249;-47
2021/12/07 06:53:35;;;;;;;8.45;3.90;;;4.30;99.90;;;;;;5072261;28;20202;-48
2021/12/07 06:56:03;;;;;;;11.93;4.20;;;4.20;99.90;;;;;;5072516;28;20181;-48
2021/12/07 06:58:28;;;;;;;13.07;4.57;;;4.10;99.90;;;;;;5072275;28;20253;-46
2021/12/07 07:00:54;;;;;;;8.13;3.97;;;4.10;99.90;;;;;;5072501;28;20251;-47
2021/12/07 07:03:19;;;;;;;13.20;4.65;;;4.10;99.90;;;;;;5072072;28;20190;-48
2021/12/07 07:05:45;;;;;;;12.60;3.95;;;4.10;99.90;;;;;;5072007;28;20672;-47
2021/12/07 07:08:11;;;;;;;11.60;3.97;;;4.10;99.90;;;;;;5072140;28;20166;-48
2021/12/07 07:10:37;;;;;;;16.63;3.97;;;4.10;99.90;;;;;;5070557;28;20243;-47
2021/12/07 07:13:03;;;;;;;14.15;3.63;;;4.00;99.90;;;;;;5072361;28;20166;-47
2021/12/07 07:15:28;;;;;;;14.88;3.75;;;4.00;99.90;;;;;;5071977;28;20654;-47
2021/12/07 07:17:54;;;;;;;14.88;4.03;;;4.00;99.90;;;;;;5072521;28;20637;-47
2021/12/07 07:20:20;;;;;;;12.73;3.67;;;3.90;99.90;;;;;;5072041;28;20166;-48
2021/12/07 07:22:46;;;;;;;11.32;4.22;;;3.90;99.90;;;;;;5072185;28;20174;-48
2021/12/07 07:25:12;;;;;;;14.55;4.07;;;3.90;99.90;;;;;;5072085;28;20213;-48
2021/12/07 07:27:37;;;;;;;14.63;4.20;;;3.90;99.90;;;;;;5071906;28;20640;-48
2021/12/07 07:30:05;;;;;;;12.18;5.40;;;3.90;99.90;;;;;;5071838;28;20260;-48
2021/12/07 07:32:31;;;;;;;21.77;4.05;;;3.80;99.90;;;;;;5072152;28;20166;-49
2021/12/07 07:34:56;;;;;;;14.93;4.38;;;3.80;99.90;;;;;;5072180;28;20166;-48
2021/12/07 07:37:22;;;;;;;15.65;3.83;;;3.80;99.90;;;;;;5071783;28;20174;-48
2021/12/07 07:39:47;;;;;;;8.80;2.80;;;3.80;99.90;;;;;;5071791;28;20185;-48
2021/12/07 07:42:13;;;;;;;14.50;3.88;;;3.90;99.90;;;;;;5071838;28;20268;-47
2021/12/07 07:44:38;;;;;;;15.27;4.32;;;3.80;99.90;;;;;;5071689;28;20200;-47
2021/12/07 07:47:05;;;;;;;13.60;4.03;;;3.80;99.90;;;;;;5071780;28;20512;-47
2021/12/07 07:49:31;;;;;;;12.73;3.22;;;3.90;99.90;;;;;;5071790;28;20633;-48
2021/12/07 07:51:56;;;;;;;11.20;3.70;;;3.80;99.90;;;;;;5072617;28;20158;-47
2021/12/07 07:54:22;;;;;;;4.68;2.58;;;3.80;99.90;;;;;;5075782;28;20174;-48
2021/12/07 07:56:47;;;;;;;19.25;3.25;;;3.80;99.90;;;;;;5075657;28;20538;-47
2021/12/07 07:59:13;;;;;;;10.90;3.05;;;3.90;99.90;;;;;;5075605;28;20170;-47
2021/12/07 08:01:38;;;;;;;15.55;3.60;;;3.90;99.90;;;;;;5075857;28;20228;-47
2021/12/07 08:04:04;;;;;;;18.10;3.38;;;3.90;99.90;;;;;;5075603;28;20162;-47
2021/12/07 08:06:30;;;;;;;18.75;4.25;;;3.90;99.90;;;;;;5075627;28;20214;-46
2021/12/07 08:08:57;;;;;;;15.73;3.83;;;3.90;99.90;;;;;;5075638;28;20198;-47
2021/12/07 08:11:23;;;;;;;14.48;3.78;;;3.90;99.90;;;;;;5076002;28;20509;-47
2021/12/07 08:13:48;;;;;;;10.00;3.42;;;3.90;99.90;;;;;;5075293;28;20170;-47
2021/12/07 08:16:17;;;;;;;13.50;3.42;;;3.90;99.90;;;;;;5075557;28;20517;-47
2021/12/07 08:18:44;;;;;;;12.68;3.50;;;4.00;99.90;;;;;;5075305;28;20618;-46
2021/12/07 08:21:10;;;;;;;9.98;3.42;;;4.00;99.90;;;;;;5073932;28;20170;-48
2021/12/07 08:23:36;;;;;;;13.88;3.75;;;4.00;99.90;;;;;;5075130;28;20193;-48
2021/12/07 08:26:02;;;;;;;10.40;3.00;;;4.00;99.90;;;;;;5075239;28;20209;-47
2021/12/07 08:28:28;;;;;;;10.38;3.20;;;4.10;99.90;;;;;;5075041;28;20162;-45
2021/12/07 08:30:53;;;;;;;9.75;3.08;;;4.00;99.90;;;;;;5075334;28;20185;-46
2021/12/07 08:33:19;;;;;;;18.08;4.15;;;4.10;99.90;;;;;;5073738;28;20208;-47
2021/12/07 08:35:45;;;;;;;10.18;2.88;;;4.10;99.90;;;;;;5074927;28;20720;-46
2021/12/07 08:38:11;;;;;;;11.15;3.13;;;4.10;99.90;;;;;;5074918;28;20166;-47
2021/12/07 08:40:39;;;;;;;13.77;3.45;;;4.20;99.90;;;;;;5074768;28;20201;-49
2021/12/07 08:43:06;;;;;;;10.63;3.70;;;4.20;99.90;;;;;;5074957;28;20174;-46
2021/12/07 08:45:32;;;;;;;13.65;2.92;;;4.20;99.90;;;;;;5074929;28;20224;-47
2021/12/07 08:47:59;;;;;;;17.10;4.05;;;4.20;99.90;;;;;;5074582;28;20170;-46
2021/12/07 08:50:28;;;;;;;17.67;3.67;;;4.20;99.90;;;;;;5074907;28;20680;-47
2021/12/07 08:53:02;;;;;;;10.40;3.67;;;4.30;99.90;;;;;;5075225;28;20169;-48
2021/12/07 09:01:06;;;;;;;10.98;3.42;;;4.20;99.90;;;;;;5044814;28;20186;-46
2021/12/07 09:03:32;;;;;;;10.80;3.92;;;4.30;99.90;;;;;;5051811;28;20163;-46
2021/12/07 09:05:57;;;;;;;10.23;3.45;;;4.30;99.90;;;;;;5052634;28;20606;-45
2021/12/07 09:08:23;;;;;;;11.63;4.25;;;4.30;99.90;;;;;;5053051;28;20170;-47
2021/12/07 09:10:50;;;;;;;12.07;4.25;;;4.20;99.90;;;;;;5052702;28;20277;-46
2021/12/07 09:13:15;;;;;;;15.13;3.75;;;4.20;99.90;;;;;;5052839;28;20217;-47
2021/12/07 09:15:41;;;;;;;15.80;4.28;;;4.20;99.90;;;;;;5052743;28;20174;-47
2021/12/07 09:18:07;;;;;;;8.35;4.07;;;4.20;99.90;;;;;;5052783;28;20226;-47
2021/12/07 09:20:32;;;;;;;24.75;4.50;;;4.30;99.90;;;;;;5052393;28;20163;-46
2021/12/07 09:22:58;;;;;;;8.60;3.28;;;4.30;99.90;;;;;;5052502;28;20170;-46
2021/12/07 09:25:24;;;;;;;12.57;3.83;;;4.30;99.90;;;;;;5052769;28;20201;-47
2021/12/07 09:27:50;;;;;;;17.60;4.20;;;4.40;99.90;;;;;;5052467;28;20174;-46
2021/12/07 09:30:17;;;;;;;6.22;2.67;;;4.40;99.90;;;;;;5052516;28;20181;-47
2021/12/07 09:32:44;;;;;;;8.00;3.08;;;4.50;99.90;;;;;;5052430;28;20174;-47
2021/12/07 09:35:10;;;;;;;10.85;3.70;;;4.50;99.90;;;;;;5052508;28;20174;-46
2021/12/07 09:37:37;;;;;;;10.20;3.20;;;4.60;99.90;;;;;;5052188;28;20651;-47
2021/12/07 09:40:07;;;;;;;8.40;3.50;;;4.60;99.90;;;;;;5052164;28;20177;-46
2021/12/07 09:42:32;;;;;;;16.35;3.60;;;4.60;99.90;;;;;;5052222;28;20266;-46
2021/12/07 09:44:58;;;;;;;10.63;3.60;;;4.70;99.90;;;;;;5051919;28;20320;-45
2021/12/07 09:47:24;;;;;;;12.50;3.45;;;4.70;99.90;;;;;;5052522;28;20198;-47
2021/12/07 09:49:50;;;;;;;11.15;3.40;;;4.70;99.90;;;;;;5050740;28;20664;-48
2021/12/07 09:52:16;;;;;;;8.48;3.65;;;4.70;99.90;;;;;;5052046;28;20530;-48
2021/12/07 09:54:42;;;;;;;17.42;4.03;;;4.80;99.90;;;;;;5051967;28;20204;-48
2021/12/07 09:57:07;;;;;;;8.25;3.22;;;4.80;99.90;;;;;;5052187;28;20178;-47
2021/12/07 09:59:33;;;;;;;12.65;3.38;;;4.80;99.90;;;;;;5051845;28;20537;-47
2021/12/07 10:01:58;;;;;;;6.57;3.60;;;4.70;99.90;;;;;;5051702;28;20636;-47
2021/12/07 10:04:27;;;;;;;13.15;3.75;;;4.80;99.90;;;;;;5052084;28;20179;-47
2021/12/07 10:06:54;;;;;;;7.95;3.95;;;4.70;99.90;;;;;;5052230;28;20562;-47
2021/12/07 10:09:21;;;;;;;12.70;3.70;;;4.80;99.90;;;;;;5051526;28;20241;-46
2021/12/07 10:11:53;;;;;;;12.60;4.13;;;4.80;99.90;;;;;;5050333;28;20174;-47
2021/12/07 10:14:19;;;;;;;13.35;4.32;;;4.90;99.90;;;;;;5051697;28;20159;-48
2021/12/07 10:16:48;;;;;;;14.35;3.60;;;4.90;99.90;;;;;;5051364;28;20167;-47
2021/12/07 10:19:27;;;;;;;10.20;2.80;;;4.90;99.90;;;;;;5051743;28;20179;-47
2021/12/07 10:22:07;;;;;;;14.80;3.75;;;4.90;99.90;;;;;;5051907;28;20194;-47
2021/12/07 10:24:39;;;;;;;13.15;3.80;;;4.90;99.90;;;;;;5051567;28;20261;-47
2021/12/07 10:27:06;;;;;;;11.20;3.40;;;4.90;99.90;;;;;;5051353;28;20535;-48
2021/12/07 10:29:32;;;;;;;13.73;3.80;;;4.90;99.90;;;;;;5051659;28;20173;-47
2021/12/07 10:32:02;;;;;;;12.65;3.65;;;4.90;99.90;;;;;;5051142;28;20591;-46
2021/12/07 10:34:32;;;;;;;10.90;3.17;;;4.90;99.90;;;;;;5051351;28;20171;-45
2021/12/07 10:37:13;;;;;;;13.55;2.95;;;4.90;99.90;;;;;;5051485;28;20266;-46
2021/12/07 10:39:48;;;;;;;14.48;3.45;;;4.90;99.90;;;;;;5051351;28;20630;-47
2021/12/07 10:42:23;;;;;;;18.33;3.20;;;5.00;99.90;;;;;;5051489;28;20177;-48
2021/12/07 10:44:49;;;;;;;17.20;3.08;;;5.10;99.90;;;;;;5051240;28;20626;-48
2021/12/07 10:47:18;;;;;;;10.98;2.85;;;5.10;99.90;;;;;;5051162;28;20171;-47
2021/12/07 10:49:54;;;;;;;10.70;2.85;;;5.10;99.90;;;;;;5051398;28;20249;-47
2021/12/07 10:52:39;;;;;;;12.90;3.03;;;5.10;99.90;;;;;;5051101;28;20231;-47
2021/12/07 10:55:20;;;;;;;9.68;3.00;;;5.10;99.90;;;;;;5051070;28;20162;-45
2021/12/07 10:57:50;;;;;;;7.63;2.45;;;5.10;99.90;;;;;;5064580;28;20182;-48
2021/12/07 11:00:33;;;;;;;9.23;3.08;;;5.10;99.90;;;;;;5071099;28;20185;-45
2021/12/07 11:03:18;;;;;;;6.72;2.53;;;5.20;99.90;;;;;;5071171;28;20189;-45
2021/12/07 11:05:50;;;;;;;11.63;3.03;;;5.20;99.90;;;;;;5070522;28;20212;-47
2021/12/07 11:08:18;;;;;;;5.43;2.40;;;5.20;99.90;;;;;;5070836;28;20245;-48
2021/12/07 11:10:48;;;;;;;6.30;3.17;;;5.30;99.90;;;;;;5070602;28;20697;-48
2021/12/07 11:13:25;;;;;;;13.57;4.60;;;5.40;99.90;;;;;;5070781;28;20162;-47
2021/12/07 11:15:54;;;;;;;15.30;4.95;;;5.50;99.90;;;;;;5070927;28;20177;-49
2021/12/07 11:18:27;;;;;;;8.48;3.80;;;5.50;99.90;;;;;;5070916;28;20166;-47
2021/12/07 11:21:01;;;;;;;14.38;6.35;;;5.40;99.90;;;;;;5071017;28;20176;-46
2021/12/07 11:23:42;;;;;;;14.18;5.70;;;5.50;99.90;;;;;;5069665;28;20581;-47
2021/12/07 11:31:44;;;;;;;10.45;2.78;;;5.90;99.90;;;;;;5069614;28;20300;-47
2021/12/07 11:34:19;;;;;;;11.98;2.53;;;5.90;99.90;;;;;;5059480;28;20178;-47
2021/12/07 11:36:58;;;;;;;11.23;2.28;;;5.70;99.90;;;;;;5070393;28;20260;-47
2021/12/07 11:39:31;;;;;;;6.90;2.63;;;5.80;99.90;;;;;;5070870;28;20188;-46
2021/12/07 11:42:05;;;;;;;14.38;3.80;;;5.70;99.90;;;;;;5070684;28;20184;-48
2021/12/07 11:44:32;;;;;;;9.05;3.25;;;5.80;99.90;;;;;;5070393;28;20162;-46
2021/12/07 11:47:01;;;;;;;9.50;2.70;;;5.80;99.90;;;;;;5070065;28;20544;-45
2021/12/07 11:49:29;;;;;;;8.45;2.85;;;5.90;99.90;;;;;;5070745;28;20212;-45
2021/12/07 11:51:57;;;;;;;7.75;2.47;;;5.90;99.90;;;;;;5070379;28;20182;-45
2021/12/07 11:54:36;;;;;;;5.95;2.20;;;6.00;99.90;;;;;;5070645;28;20177;-47
2021/12/07 11:57:04;;;;;;;8.23;2.30;;;6.00;99.90;;;;;;5070100;28;20185;-47
2021/12/07 11:59:30;;;;;;;7.70;2.50;;;6.00;99.90;;;;;;5070147;28;20246;-46
2021/12/07 12:01:55;;;;;;;9.10;2.80;;;5.90;99.90;;;;;;5070430;28;20258;-46
2021/12/07 12:04:21;;;;;;;8.18;2.92;;;5.80;99.90;;;;;;5070261;28;20170;-47
2021/12/07 12:06:53;;;;;;;9.05;3.25;;;5.90;99.90;;;;;;5070179;28;21199;-47
2021/12/07 12:09:19;;;;;;;6.63;3.80;;;5.90;99.90;;;;;;5070013;28;20549;-46
2021/12/07 12:11:50;;;;;;;9.43;2.85;;;5.80;99.90;;;;;;5069984;28;20173;-45
2021/12/07 12:14:43;;;;;;;7.68;2.95;;;5.70;99.90;;;;;;5070487;28;20174;-47
2021/12/07 12:17:33;;;;;;;7.53;2.97;;;5.80;99.90;;;;;;5070184;28;20699;-47
2021/12/07 12:20:29;;;;;;;7.07;2.88;;;5.80;99.90;;;;;;5069940;28;20245;-47
2021/12/07 12:23:08;;;;;;;7.38;3.20;;;5.70;99.90;;;;;;5067356;28;20251;-48
2021/12/07 12:25:35;;;;;;;10.50;2.65;;;5.70;99.90;;;;;;5089021;28;20562;-48
2021/12/07 12:28:00;;;;;;;6.15;2.00;;;5.70;99.90;;;;;;5090258;28;20157;-46
2021/12/07 12:30:32;;;;;;;9.38;1.90;;;5.70;99.90;;;;;;5090633;28;20181;-48
2021/12/07 12:33:10;;;;;;;4.70;1.50;;;5.80;99.90;;;;;;5088807;28;20199;-46
2021/12/07 12:35:40;;;;;;;11.48;3.10;;;5.70;99.90;;;;;;5090553;28;20181;-47
2021/12/07 12:38:26;;;;;;;3.33;2.05;;;5.70;99.90;;;;;;5090934;28;20675;-46
2021/12/07 12:41:00;;;;;;;6.93;2.00;;;5.70;99.90;;;;;;5093790;28;20169;-47
2021/12/07 12:43:43;;;;;;;10.18;3.42;;;5.70;99.90;;;;;;5093974;28;20168;-47
2021/12/07 12:46:15;;;;;;;7.45;2.40;;;5.70;99.90;;;;;;5093639;28;20682;-48
2021/12/07 12:49:10;;;;;;;7.22;1.90;;;5.80;99.90;;;;;;5093655;28;20176;-48
2021/12/07 12:51:50;;;;;;;3.92;1.70;;;5.80;99.90;;;;;;5093908;28;20181;-48
2021/12/07 12:54:18;;;;;;;7.85;2.47;;;5.70;99.90;;;;;;5093868;28;20175;-47
2021/12/07 12:56:44;;;;;;;6.07;1.92;;;5.70;99.90;;;;;;5092518;28;20165;-47
2021/12/07 12:59:12;;;;;;;7.25;2.00;;;5.70;99.90;;;;;;5093534;28;20176;-47
2021/12/07 13:01:44;;;;;;;7.93;2.80;;;5.80;99.90;;;;;;5093462;28;20173;-47
2021/12/07 13:04:14;;;;;;;9.05;2.20;;;5.80;99.90;;;;;;5093630;28;20184;-46
2021/12/07 13:07:02;;;;;;;6.82;1.88;;;5.80;99.90;;;;;;5093437;28;20209;-47
2021/12/07 13:09:38;;;;;;;4.97;2.22;;;5.70;99.90;;;;;;5093228;28;20225;-43
2021/12/07 13:12:16;;;;;;;11.50;2.95;;;5.70;99.90;;;;;;5093163;28;20251;-43
2021/12/07 13:14:53;;;;;;;3.70;1.88;;;5.70;99.90;;;;;;5093053;28;20227;-43
2021/12/07 13:17:30;;;;;;;5.65;2.13;;;5.70;99.90;;;;;;5091887;28;20169;-46
2021/12/07 13:20:07;;;;;;;6.60;2.20;;;5.70;99.90;;;;;;5093241;28;20539;-44
2021/12/07 13:22:43;;;;;;;7.00;2.88;;;5.70;99.90;;;;;;5093082;28;20169;-44
2021/12/07 13:25:25;;;;;;;8.68;2.35;;;5.80;99.90;;;;;;5093248;28;20200;-41
2021/12/07 13:28:10;;;;;;;6.78;2.70;;;5.70;99.90;;;;;;5093177;28;20272;-42
2021/12/07 13:30:45;;;;;;;5.45;1.85;;;5.60;99.90;;;;;;5092852;28;20173;-41
2021/12/07 13:33:34;;;;;;;7.88;2.38;;;5.60;99.90;;;;;;5092582;28;20172;-41
2021/12/07 13:36:00;;;;;;;9.88;2.47;;;5.70;99.90;;;;;;5092630;28;20656;-41
2021/12/07 13:38:31;;;;;;;5.07;1.75;;;5.70;99.90;;;;;;5093249;28;20216;-43
2021/12/07 13:41:14;;;;;;;4.97;1.85;;;5.70;99.90;;;;;;5093029;28;20535;-43
2021/12/07 13:43:43;;;;;;;8.13;2.10;;;5.70;99.90;;;;;;5092564;28;20157;-42
2021/12/07 13:46:13;;;;;;;8.15;2.10;;;5.70;99.90;;;;;;5092362;28;20209;-45
2021/12/07 13:48:43;;;;;;;13.02;2.88;;;5.60;99.90;;;;;;5092387;28;20169;-42
2021/12/07 13:51:11;;;;;;;9.18;2.17;;;5.60;99.90;;;;;;5091787;28;20169;-42
2021/12/07 13:53:38;;;;;;;7.45;2.10;;;5.50;99.90;;;;;;5092584;28;20170;-40
2021/12/07 13:56:05;;;;;;;3.97;1.80;;;5.60;99.90;;;;;;5092636;28;20180;-41
2021/12/07 13:58:52;;;;;;;4.85;1.83;;;5.50;99.90;;;;;;5092338;28;20168;-43
2021/12/07 14:01:19;;;;;;;8.07;2.67;;;5.40;99.90;;;;;;5092368;28;20167;-42
2021/12/07 14:03:45;;;;;;;5.95;2.58;;;5.50;99.90;;;;;;5092124;28;20651;-40
2021/12/07 14:06:10;;;;;;;10.13;2.25;;;5.50;99.90;;;;;;5092027;28;20205;-40
2021/12/07 14:08:36;;;;;;;5.95;2.25;;;5.40;99.90;;;;;;5091871;28;20528;-43
2021/12/07 14:11:02;;;;;;;11.43;3.20;;;5.50;99.90;;;;;;5091984;28;20185;-43
2021/12/07 14:13:27;;;;;;;7.97;2.00;;;5.40;99.90;;;;;;5090766;28;20222;-49
2021/12/07 14:15:53;;;;;;;6.10;2.20;;;5.40;99.90;;;;;;5091626;28;20173;-48
2021/12/07 14:18:23;;;;;;;5.25;1.85;;;5.30;99.90;;;;;;5081953;28;20591;-44
2021/12/07 14:20:55;;;;;;;9.70;2.20;;;5.30;99.90;;;;;;5071445;28;20636;-48
2021/12/07 14:23:24;;;;;;;7.18;2.65;;;5.20;99.90;;;;;;5066664;28;20227;-44
2021/12/07 14:26:01;;;;;;;9.40;2.88;;;5.30;99.90;;;;;;5071281;28;20239;-46
2021/12/07 14:28:28;;;;;;;11.55;2.25;;;5.30;99.90;;;;;;5071603;28;20157;-44
2021/12/07 14:31:00;;;;;;;10.38;2.13;;;5.20;99.90;;;;;;5070706;28;20165;-45
2021/12/07 14:33:25;;;;;;;7.13;1.98;;;5.20;99.90;;;;;;5071899;28;20181;-44
2021/12/07 14:35:51;;;;;;;7.00;2.03;;;5.20;99.90;;;;;;5070015;28;20204;-43